Time;durP1;ratioP1;P1;durP2;ratioP2;P2;SDS_P1;SDS_P2;PMS_P1;PMS_P2;Temp;Humidity;BMP_temperature;BMP_pressure;BME280_temperature;BME280_humidity;BME280_pressure;Samples;Min_cycle;Max_cycle;Signal;HPM_P1;HPM_P2
2021/07/10 00:00:10;;;;;;;3.30;1.30;;;16.50;69.10;;;;;;5011151;28;20168;-91
2021/07/10 00:02:36;;;;;;;2.28;1.42;;;16.40;68.60;;;;;;5006214;28;20037;-91
2021/07/10 00:05:03;;;;;;;3.78;1.65;;;16.50;68.90;;;;;;5003931;28;20030;-90
2021/07/10 00:07:28;;;;;;;2.75;1.40;;;16.50;68.50;;;;;;5010369;28;20022;-89
2021/07/10 00:09:54;;;;;;;1.90;1.60;;;16.50;69.00;;;;;;5010785;28;20034;-89
2021/07/10 00:12:20;;;;;;;1.50;1.13;;;16.50;69.10;;;;;;5010923;28;20057;-90
2021/07/10 00:14:45;;;;;;;1.83;1.30;;;16.50;69.30;;;;;;5010254;28;20546;-90
2021/07/10 00:17:11;;;;;;;1.70;1.30;;;16.50;69.40;;;;;;5010195;28;20022;-89
2021/07/10 00:19:37;;;;;;;2.95;1.50;;;16.40;69.40;;;;;;5008532;28;20053;-90
2021/07/10 00:22:03;;;;;;;1.90;1.40;;;16.40;69.10;;;;;;5010495;28;20023;-89
2021/07/10 00:24:31;;;;;;;1.85;1.50;;;16.40;69.80;;;;;;5011920;28;20053;-89
2021/07/10 00:26:58;;;;;;;2.97;1.55;;;16.30;69.40;;;;;;5008681;28;20490;-90
2021/07/10 00:29:23;;;;;;;2.33;1.50;;;16.30;70.60;;;;;;5007906;28;20076;-91
2021/07/10 00:31:51;;;;;;;2.63;1.58;;;16.30;69.60;;;;;;5008709;28;20034;-90
2021/07/10 00:34:16;;;;;;;2.88;1.92;;;16.30;69.50;;;;;;5008853;28;20026;-92
2021/07/10 00:36:42;;;;;;;2.30;1.50;;;16.30;70.20;;;;;;5010708;28;20030;-91
2021/07/10 00:39:08;;;;;;;2.42;1.55;;;16.30;70.00;;;;;;5011754;28;20072;-91
2021/07/10 00:41:34;;;;;;;2.40;1.60;;;16.30;70.00;;;;;;5008578;28;20030;-91
2021/07/10 00:43:59;;;;;;;2.47;1.50;;;16.30;70.40;;;;;;5009768;28;20026;-91
2021/07/10 00:46:26;;;;;;;3.40;1.60;;;16.30;71.30;;;;;;5010991;28;20482;-91
2021/07/10 00:48:52;;;;;;;2.75;1.60;;;16.30;70.50;;;;;;5010774;28;20030;-90
2021/07/10 00:51:19;;;;;;;2.83;1.58;;;16.30;70.70;;;;;;5013240;28;20033;-92
2021/07/10 00:53:45;;;;;;;1.77;1.35;;;16.30;70.60;;;;;;5009083;28;20499;-88
2021/07/10 00:56:11;;;;;;;2.53;1.45;;;16.40;70.90;;;;;;5007879;28;20025;-88
2021/07/10 00:58:38;;;;;;;2.17;1.40;;;16.40;70.90;;;;;;5010045;28;20494;-89
2021/07/10 01:01:03;;;;;;;2.55;1.52;;;16.40;71.20;;;;;;5008497;28;20053;-90
2021/07/10 01:03:32;;;;;;;1.83;1.50;;;16.40;71.00;;;;;;5012358;28;20084;-89
2021/07/10 01:05:59;;;;;;;2.65;1.50;;;16.40;71.00;;;;;;5013760;28;20513;-90
2021/07/10 01:08:25;;;;;;;4.00;1.65;;;16.40;70.80;;;;;;5011486;28;20026;-88
2021/07/10 01:10:52;;;;;;;3.33;1.85;;;16.40;70.90;;;;;;5010901;28;20033;-89
2021/07/10 01:13:19;;;;;;;2.08;1.20;;;16.40;70.70;;;;;;5012784;28;20039;-88
2021/07/10 01:15:44;;;;;;;3.90;1.73;;;16.40;70.80;;;;;;5014936;28;20018;-89
2021/07/10 01:18:10;;;;;;;2.53;1.50;;;16.40;70.40;;;;;;5012444;28;20032;-89
2021/07/10 01:20:53;;;;;;;2.28;1.40;;;16.40;70.70;;;;;;5012143;28;20036;-92
2021/07/10 01:23:20;;;;;;;2.78;1.42;;;16.40;71.00;;;;;;5012466;28;20120;-90
2021/07/10 01:25:46;;;;;;;2.65;1.42;;;16.40;71.00;;;;;;5011505;28;20034;-92
2021/07/10 01:28:13;;;;;;;2.05;1.20;;;16.40;71.10;;;;;;5011739;28;20042;-90
2021/07/10 01:30:40;;;;;;;2.28;1.63;;;16.40;71.50;;;;;;5013497;28;20030;-87
2021/07/10 01:33:06;;;;;;;1.88;1.40;;;16.40;70.90;;;;;;5013427;28;20477;-88
2021/07/10 01:35:32;;;;;;;1.80;1.35;;;16.40;71.60;;;;;;5012145;28;20116;-87
2021/07/10 01:38:00;;;;;;;2.35;1.05;;;16.40;71.80;;;;;;5012770;28;20032;-89
2021/07/10 01:40:25;;;;;;;6.60;1.70;;;16.40;71.70;;;;;;5013750;28;20022;-90
2021/07/10 01:42:52;;;;;;;3.08;1.40;;;16.40;71.50;;;;;;5014278;28;20402;-90
2021/07/10 01:45:20;;;;;;;1.92;1.58;;;16.40;71.50;;;;;;5013655;28;20479;-89
2021/07/10 01:47:49;;;;;;;2.72;1.50;;;16.40;72.40;;;;;;5011386;28;20037;-91
2021/07/10 01:50:16;;;;;;;2.42;1.75;;;16.40;71.40;;;;;;5011672;28;20080;-91
2021/07/10 01:52:42;;;;;;;2.83;1.50;;;16.40;71.30;;;;;;5013849;28;20065;-90
2021/07/10 01:55:11;;;;;;;2.63;1.20;;;16.40;71.30;;;;;;5010693;28;20041;-90
2021/07/10 01:57:37;;;;;;;2.58;1.52;;;16.40;72.30;;;;;;5014567;28;20033;-88
2021/07/10 02:00:08;;;;;;;3.42;1.73;;;16.40;71.40;;;;;;5014243;28;20033;-89
2021/07/10 02:02:34;;;;;;;4.72;1.65;;;16.40;72.30;;;;;;5010593;28;20037;-93
2021/07/10 02:04:59;;;;;;;4.53;1.27;;;16.40;71.80;;;;;;5012784;28;20025;-93
2021/07/10 02:07:25;;;;;;;3.00;1.67;;;16.40;71.50;;;;;;5011329;28;20100;-94
2021/07/10 02:09:50;;;;;;;3.75;1.52;;;16.30;71.60;;;;;;5012409;28;20127;-94
2021/07/10 02:12:16;;;;;;;3.33;1.92;;;16.30;71.50;;;;;;5014313;28;20084;-93
2021/07/10 02:14:42;;;;;;;1.88;1.40;;;16.40;71.50;;;;;;5012495;28;20042;-92
2021/07/10 02:17:08;;;;;;;2.17;1.50;;;16.40;72.20;;;;;;5012082;28;20026;-94
2021/07/10 02:19:33;;;;;;;1.70;1.20;;;16.30;72.00;;;;;;5015017;28;20040;-92
2021/07/10 02:21:59;;;;;;;2.25;1.48;;;16.30;72.40;;;;;;4995437;28;20018;-88
2021/07/10 02:24:25;;;;;;;1.85;1.48;;;16.30;71.80;;;;;;5013815;28;20033;-93
2021/07/10 02:26:51;;;;;;;2.15;1.35;;;16.30;71.90;;;;;;5013630;28;20029;-93
2021/07/10 02:29:17;;;;;;;2.30;1.27;;;16.20;71.80;;;;;;5013275;28;20402;-93
2021/07/10 02:31:42;;;;;;;2.88;1.80;;;16.20;72.00;;;;;;5013373;28;20026;-92
2021/07/10 02:34:09;;;;;;;2.15;1.60;;;16.20;71.80;;;;;;5010915;28;20034;-92
2021/07/10 02:36:34;;;;;;;1.80;1.40;;;16.20;72.60;;;;;;5014036;28;20486;-92
2021/07/10 02:39:00;;;;;;;2.50;1.60;;;16.20;72.20;;;;;;4994419;28;20026;-93
2021/07/10 02:41:26;;;;;;;2.22;1.40;;;16.10;73.00;;;;;;5008410;28;20493;-88
2021/07/10 02:43:52;;;;;;;2.40;1.55;;;16.10;72.20;;;;;;5011013;28;20057;-88
2021/07/10 02:46:18;;;;;;;2.13;1.50;;;16.10;72.20;;;;;;5011313;28;20033;-90
2021/07/10 02:48:47;;;;;;;2.50;1.45;;;16.10;72.10;;;;;;5011601;28;20494;-90
2021/07/10 02:51:15;;;;;;;3.00;1.60;;;16.10;72.30;;;;;;5011779;28;20033;-90
2021/07/10 02:53:41;;;;;;;2.78;1.67;;;16.20;72.60;;;;;;5011471;28;20046;-90
2021/07/10 02:56:07;;;;;;;1.70;1.35;;;16.10;72.70;;;;;;5010621;28;20029;-89
2021/07/10 02:58:32;;;;;;;2.17;1.58;;;16.20;72.50;;;;;;5011676;28;20034;-89
2021/07/10 03:00:59;;;;;;;2.90;1.40;;;16.20;72.60;;;;;;5011455;28;20026;-91
2021/07/10 03:03:24;;;;;;;2.00;1.70;;;16.20;72.70;;;;;;5014568;28;20029;-86
2021/07/10 03:05:50;;;;;;;2.63;1.40;;;16.20;72.70;;;;;;5011713;28;20038;-89
2021/07/10 03:08:20;;;;;;;3.05;1.40;;;16.20;72.80;;;;;;5010468;28;20394;-89
2021/07/10 03:10:47;;;;;;;2.22;1.70;;;16.20;73.50;;;;;;5012230;28;20022;-89
2021/07/10 03:13:14;;;;;;;2.33;1.85;;;16.20;72.80;;;;;;5009962;28;20042;-88
2021/07/10 03:15:40;;;;;;;2.05;1.50;;;16.10;72.80;;;;;;5011895;28;20026;-90
2021/07/10 03:18:05;;;;;;;2.85;1.50;;;16.10;73.60;;;;;;5013650;28;20082;-90
2021/07/10 03:20:31;;;;;;;1.98;1.50;;;16.10;73.50;;;;;;5010878;28;20116;-90
2021/07/10 03:22:57;;;;;;;2.80;1.50;;;16.10;74.20;;;;;;5010793;28;20121;-92
2021/07/10 03:25:23;;;;;;;4.50;1.88;;;16.10;74.60;;;;;;5011206;28;20095;-91
2021/07/10 03:27:50;;;;;;;4.28;1.77;;;16.00;73.80;;;;;;5010983;28;20081;-90
2021/07/10 03:30:18;;;;;;;3.05;1.65;;;16.00;73.80;;;;;;5010863;28;20040;-88
2021/07/10 03:32:44;;;;;;;2.75;1.80;;;16.00;73.90;;;;;;5010079;28;20033;-89
2021/07/10 03:35:11;;;;;;;1.80;1.55;;;16.00;74.30;;;;;;5010509;28;20034;-93
2021/07/10 03:37:37;;;;;;;3.70;1.50;;;15.90;74.60;;;;;;5012504;28;20108;-90
2021/07/10 03:40:05;;;;;;;2.60;1.75;;;15.90;74.00;;;;;;5010703;28;20109;-87
2021/07/10 03:42:31;;;;;;;2.35;1.60;;;15.90;74.70;;;;;;5012111;28;20026;-87
2021/07/10 03:44:56;;;;;;;5.10;1.70;;;15.90;74.40;;;;;;5008677;28;20116;-88
2021/07/10 03:47:22;;;;;;;3.00;1.35;;;15.90;74.50;;;;;;5008277;28;20026;-88
2021/07/10 03:49:48;;;;;;;3.47;1.70;;;15.90;74.90;;;;;;5010002;28;20034;-89
2021/07/10 03:52:13;;;;;;;2.65;1.90;;;15.90;75.20;;;;;;5009682;28;20025;-88
2021/07/10 03:54:39;;;;;;;2.28;1.60;;;15.90;74.80;;;;;;5012107;28;20038;-87
2021/07/10 03:57:05;;;;;;;4.10;1.58;;;15.90;76.10;;;;;;5011924;28;20364;-88
2021/07/10 03:59:31;;;;;;;4.35;1.55;;;15.80;75.90;;;;;;5011208;28;20048;-87
2021/07/10 04:01:56;;;;;;;2.20;1.67;;;15.90;75.90;;;;;;5007988;28;20033;-91
2021/07/10 04:04:22;;;;;;;2.75;1.80;;;15.90;75.30;;;;;;5007995;28;20087;-86
2021/07/10 04:06:47;;;;;;;2.97;1.88;;;15.80;75.70;;;;;;5010536;28;20214;-88
2021/07/10 04:09:13;;;;;;;3.58;1.70;;;15.90;75.80;;;;;;5009112;28;20061;-88
2021/07/10 04:11:39;;;;;;;3.00;1.88;;;15.90;75.10;;;;;;5009589;28;20029;-88
2021/07/10 04:14:05;;;;;;;2.83;1.80;;;15.90;75.60;;;;;;5003342;28;20081;-88
2021/07/10 04:16:30;;;;;;;2.75;1.88;;;15.90;75.50;;;;;;5008968;28;20010;-88
2021/07/10 04:18:56;;;;;;;2.70;1.88;;;15.90;75.50;;;;;;5010705;28;20061;-88
2021/07/10 04:21:22;;;;;;;3.70;1.80;;;15.90;75.70;;;;;;5011329;28;20025;-89
2021/07/10 04:23:48;;;;;;;3.55;1.70;;;15.90;75.60;;;;;;5009224;28;20075;-88
2021/07/10 04:26:13;;;;;;;4.32;2.10;;;15.90;76.90;;;;;;5009096;28;20390;-88
2021/07/10 04:28:39;;;;;;;2.30;1.85;;;16.00;75.90;;;;;;5010881;28;20045;-88
2021/07/10 04:31:05;;;;;;;2.10;1.58;;;16.00;76.10;;;;;;5008043;28;20041;-87
2021/07/10 04:33:30;;;;;;;3.03;1.70;;;16.00;76.30;;;;;;5013061;28;20560;-93
2021/07/10 04:35:56;;;;;;;2.30;1.75;;;15.90;76.00;;;;;;5010415;28;20542;-90
2021/07/10 04:38:21;;;;;;;2.55;1.83;;;15.90;75.90;;;;;;5009610;28;20371;-90
2021/07/10 04:40:47;;;;;;;2.85;2.15;;;16.00;76.30;;;;;;5008432;28;20022;-91
2021/07/10 04:43:13;;;;;;;2.95;1.65;;;16.00;76.10;;;;;;5009991;28;20032;-90
2021/07/10 04:45:39;;;;;;;2.47;1.95;;;16.00;76.50;;;;;;5010359;28;20506;-88
2021/07/10 04:48:08;;;;;;;1.95;1.60;;;16.00;76.10;;;;;;5010498;28;20034;-89
2021/07/10 04:50:35;;;;;;;3.08;1.95;;;16.00;76.60;;;;;;5003177;28;20126;-90
2021/07/10 04:53:00;;;;;;;2.00;1.52;;;16.00;76.40;;;;;;5010132;28;20041;-90
2021/07/10 04:55:26;;;;;;;3.00;1.73;;;16.00;76.60;;;;;;5008443;28;20040;-87
2021/07/10 04:57:51;;;;;;;2.20;1.48;;;16.00;76.60;;;;;;5009160;28;20077;-88
2021/07/10 05:00:18;;;;;;;3.15;1.63;;;16.00;76.30;;;;;;5009799;28;20026;-88
2021/07/10 05:02:44;;;;;;;2.17;1.48;;;16.00;76.30;;;;;;5008807;28;20088;-92
2021/07/10 05:05:11;;;;;;;1.80;1.60;;;16.00;76.60;;;;;;5009080;28;20390;-89
2021/07/10 05:07:37;;;;;;;2.95;1.58;;;16.00;76.50;;;;;;5009034;28;20509;-87
2021/07/10 05:10:05;;;;;;;3.00;1.63;;;16.00;76.50;;;;;;5008777;28;20022;-86
2021/07/10 05:12:31;;;;;;;2.92;1.75;;;16.00;76.20;;;;;;5010747;28;20037;-89
2021/07/10 05:14:56;;;;;;;3.60;1.70;;;16.00;76.20;;;;;;5010096;28;20026;-88
2021/07/10 05:17:23;;;;;;;4.10;1.92;;;16.00;76.70;;;;;;5007753;28;20026;-88
2021/07/10 05:19:49;;;;;;;4.45;1.90;;;16.00;76.60;;;;;;5008729;28;20041;-89
2021/07/10 05:22:16;;;;;;;3.03;1.85;;;16.00;76.30;;;;;;5007871;28;20495;-88
2021/07/10 05:24:42;;;;;;;3.58;2.00;;;16.00;76.30;;;;;;5010897;28;20030;-88
2021/07/10 05:27:07;;;;;;;2.63;1.90;;;16.00;76.60;;;;;;5011504;28;20022;-88
2021/07/10 05:29:34;;;;;;;2.45;1.80;;;16.10;76.40;;;;;;4990496;28;20034;-89
2021/07/10 05:32:00;;;;;;;2.20;1.67;;;16.10;76.40;;;;;;4987920;28;20042;-88
2021/07/10 05:34:26;;;;;;;3.75;1.88;;;16.10;76.50;;;;;;4989981;28;20030;-88
2021/07/10 05:36:55;;;;;;;2.28;1.73;;;16.20;76.60;;;;;;4990588;28;20042;-88
2021/07/10 05:39:21;;;;;;;2.85;1.67;;;16.20;76.30;;;;;;4990324;28;20026;-89
2021/07/10 05:41:46;;;;;;;2.70;1.77;;;16.20;76.80;;;;;;4988544;28;20033;-89
2021/07/10 05:44:12;;;;;;;3.72;1.52;;;16.20;76.50;;;;;;4987908;28;20117;-89
2021/07/10 05:46:37;;;;;;;2.97;2.10;;;16.30;77.20;;;;;;4988676;28;20161;-88
2021/07/10 05:49:03;;;;;;;3.10;2.25;;;16.30;76.40;;;;;;4989605;28;20054;-89
2021/07/10 05:51:29;;;;;;;2.28;1.63;;;16.20;77.10;;;;;;4993355;28;20395;-87
2021/07/10 05:53:54;;;;;;;3.08;1.70;;;16.20;78.30;;;;;;4992463;28;20392;-89
2021/07/10 05:56:20;;;;;;;2.28;1.80;;;16.10;76.70;;;;;;4992594;28;20030;-88
2021/07/10 05:58:46;;;;;;;2.15;1.80;;;16.10;78.20;;;;;;4992459;28;20101;-87
2021/07/10 06:01:11;;;;;;;2.70;2.00;;;16.10;78.00;;;;;;4990611;28;20058;-88
2021/07/10 06:03:37;;;;;;;3.15;1.90;;;16.00;78.20;;;;;;4974792;28;20038;-86
2021/07/10 06:06:03;;;;;;;2.42;1.92;;;16.00;77.70;;;;;;4992908;28;20081;-85
2021/07/10 06:08:29;;;;;;;3.33;1.98;;;16.00;77.40;;;;;;4990467;28;20494;-86
2021/07/10 06:10:55;;;;;;;2.80;1.92;;;16.00;78.10;;;;;;4993451;28;20030;-85
2021/07/10 06:13:21;;;;;;;3.63;2.20;;;16.00;78.10;;;;;;4991884;28;20470;-86
2021/07/10 06:15:47;;;;;;;4.10;1.90;;;16.00;78.10;;;;;;4993104;28;20102;-85
2021/07/10 06:18:12;;;;;;;3.10;2.00;;;15.90;77.90;;;;;;4987517;28;20117;-85
2021/07/10 06:20:39;;;;;;;2.60;1.88;;;15.90;78.20;;;;;;4989855;28;20114;-89
2021/07/10 06:23:05;;;;;;;1.63;1.48;;;15.90;78.50;;;;;;4994152;28;20064;-90
2021/07/10 06:25:32;;;;;;;3.15;1.90;;;15.90;78.60;;;;;;4993216;28;20509;-87
2021/07/10 06:27:59;;;;;;;2.88;2.13;;;15.90;79.20;;;;;;5001910;28;20049;-89
2021/07/10 06:30:25;;;;;;;2.75;1.80;;;15.90;79.30;;;;;;5016031;28;20022;-88
2021/07/10 06:32:50;;;;;;;3.17;1.80;;;15.90;78.50;;;;;;5012625;28;20033;-87
2021/07/10 06:35:16;;;;;;;2.28;1.58;;;15.90;78.70;;;;;;5011035;28;20129;-84
2021/07/10 06:37:42;;;;;;;3.28;1.70;;;16.00;78.80;;;;;;5013436;28;20064;-89
2021/07/10 06:40:10;;;;;;;2.83;1.90;;;16.00;78.60;;;;;;5012436;28;20038;-88
2021/07/10 06:42:36;;;;;;;3.15;2.15;;;16.00;78.30;;;;;;5013685;28;20387;-86
2021/07/10 06:45:04;;;;;;;2.33;1.92;;;16.00;79.20;;;;;;5011425;28;20026;-86
2021/07/10 06:47:30;;;;;;;3.40;1.98;;;16.00;78.40;;;;;;5011438;28;20386;-88
2021/07/10 06:49:55;;;;;;;3.47;1.92;;;16.10;79.70;;;;;;5011757;28;20041;-88
2021/07/10 06:52:21;;;;;;;2.90;2.20;;;16.20;79.10;;;;;;5007591;28;20026;-89
2021/07/10 06:54:47;;;;;;;3.25;2.00;;;16.20;79.10;;;;;;4995189;28;20483;-89
2021/07/10 06:57:12;;;;;;;3.10;1.80;;;16.30;79.20;;;;;;5012781;28;20089;-90
2021/07/10 06:59:38;;;;;;;2.88;2.10;;;16.40;78.90;;;;;;5009685;28;20029;-90
2021/07/10 07:02:05;;;;;;;3.38;2.03;;;16.40;78.50;;;;;;5010968;28;20549;-90
2021/07/10 07:04:30;;;;;;;5.43;1.80;;;16.40;78.50;;;;;;5012200;28;20018;-90
2021/07/10 07:06:56;;;;;;;3.15;2.30;;;16.40;78.50;;;;;;5010234;28;20027;-87
2021/07/10 07:09:22;;;;;;;3.13;1.90;;;16.50;78.60;;;;;;5012910;28;20084;-87
2021/07/10 07:11:50;;;;;;;5.55;2.17;;;16.50;78.90;;;;;;5011388;28;20029;-86
2021/07/10 07:14:16;;;;;;;2.70;2.10;;;16.50;78.50;;;;;;5011530;28;20034;-90
2021/07/10 07:16:41;;;;;;;2.53;2.20;;;16.60;79.50;;;;;;5010051;28;20080;-89
2021/07/10 07:19:07;;;;;;;2.88;2.10;;;16.60;79.10;;;;;;5010275;28;20522;-89
2021/07/10 07:21:33;;;;;;;3.97;2.20;;;16.70;79.00;;;;;;5009337;28;20117;-90
2021/07/10 07:23:58;;;;;;;3.90;2.55;;;16.70;78.60;;;;;;5010654;28;20117;-92
2021/07/10 07:26:24;;;;;;;3.38;1.92;;;16.70;78.50;;;;;;5011250;28;20022;-90
2021/07/10 07:28:50;;;;;;;4.90;2.58;;;16.70;78.80;;;;;;5003956;28;20054;-87
2021/07/10 07:31:17;;;;;;;3.50;2.28;;;16.70;78.50;;;;;;5007752;28;20463;-88
2021/07/10 07:33:43;;;;;;;2.53;1.80;;;16.70;78.70;;;;;;5001715;28;20136;-90
2021/07/10 07:36:09;;;;;;;2.28;1.73;;;16.70;78.50;;;;;;4997886;28;20099;-86
2021/07/10 07:38:35;;;;;;;3.50;1.92;;;16.70;79.10;;;;;;4996478;28;20120;-85
2021/07/10 07:41:02;;;;;;;2.50;1.73;;;16.80;79.20;;;;;;4999519;28;20053;-91
2021/07/10 07:43:28;;;;;;;2.95;1.92;;;16.80;79.30;;;;;;5010394;28;20026;-90
2021/07/10 07:45:54;;;;;;;4.10;2.40;;;16.90;79.40;;;;;;5010235;28;20080;-87
2021/07/10 07:48:20;;;;;;;2.72;2.20;;;16.90;79.10;;;;;;5001012;28;20065;-86
2021/07/10 07:50:46;;;;;;;4.35;2.47;;;16.90;79.70;;;;;;5009641;28;20041;-88
2021/07/10 07:53:13;;;;;;;5.00;2.60;;;17.00;79.70;;;;;;5009801;28;20033;-88
2021/07/10 07:55:39;;;;;;;3.42;2.30;;;17.20;79.40;;;;;;5009410;28;20033;-88
2021/07/10 07:58:05;;;;;;;2.92;2.20;;;17.30;79.30;;;;;;5008157;28;20022;-88
2021/07/10 08:00:31;;;;;;;4.50;2.47;;;17.30;79.20;;;;;;5011962;28;20409;-88
2021/07/10 08:02:57;;;;;;;2.70;1.95;;;17.40;78.80;;;;;;5008499;28;20026;-88
2021/07/10 08:05:23;;;;;;;2.92;1.90;;;17.40;78.70;;;;;;5008190;28;20390;-88
2021/07/10 08:07:50;;;;;;;4.70;2.30;;;17.30;78.50;;;;;;5007560;28;20038;-85
2021/07/10 08:10:16;;;;;;;2.10;1.75;;;17.20;79.10;;;;;;5009816;28;20018;-82
2021/07/10 08:12:44;;;;;;;4.28;2.00;;;17.10;78.50;;;;;;4993534;28;20458;-81
2021/07/10 08:15:10;;;;;;;4.97;2.00;;;17.00;78.10;;;;;;4999657;28;20034;-83
2021/07/10 08:17:36;;;;;;;3.90;2.10;;;16.90;79.20;;;;;;5006247;28;20441;-84
2021/07/10 08:20:05;;;;;;;3.47;2.05;;;16.80;81.90;;;;;;5008721;28;20018;-84
2021/07/10 08:22:30;;;;;;;4.35;2.08;;;16.80;81.20;;;;;;5009131;28;20509;-81
2021/07/10 08:24:56;;;;;;;3.22;2.00;;;16.80;81.40;;;;;;5003025;28;20034;-85
2021/07/10 08:27:23;;;;;;;4.82;2.30;;;16.80;81.50;;;;;;5010965;28;20032;-82
2021/07/10 08:29:49;;;;;;;2.47;1.90;;;16.80;82.00;;;;;;5009271;28;20449;-82
2021/07/10 08:32:14;;;;;;;3.20;1.73;;;16.80;82.20;;;;;;5010353;28;20021;-82
2021/07/10 08:34:40;;;;;;;2.45;1.75;;;16.80;82.10;;;;;;5008732;28;20038;-81
2021/07/10 08:37:05;;;;;;;2.75;1.85;;;16.80;82.20;;;;;;5009998;28;20473;-82
2021/07/10 08:39:31;;;;;;;2.22;1.77;;;16.80;82.40;;;;;;5011845;28;20075;-84
2021/07/10 08:41:57;;;;;;;3.55;1.55;;;16.90;82.10;;;;;;5009182;28;20487;-84
2021/07/10 08:44:24;;;;;;;3.17;2.10;;;16.90;82.10;;;;;;5009009;28;20026;-84
2021/07/10 08:46:52;;;;;;;2.95;1.98;;;17.00;81.30;;;;;;5009899;28;20036;-84
2021/07/10 08:49:18;;;;;;;2.97;1.80;;;17.00;82.10;;;;;;5008878;28;20030;-84
2021/07/10 08:51:46;;;;;;;5.75;3.20;;;16.90;82.30;;;;;;5011190;28;20022;-83
2021/07/10 08:54:13;;;;;;;3.58;2.10;;;16.90;81.80;;;;;;5009921;28;20026;-79
2021/07/10 08:56:39;;;;;;;3.00;2.05;;;17.00;83.20;;;;;;5008415;28;20033;-80
2021/07/10 08:59:08;;;;;;;2.75;1.70;;;16.90;82.40;;;;;;5008520;28;20025;-79
2021/07/10 09:01:34;;;;;;;28.25;12.35;;;17.00;82.30;;;;;;5009125;28;20380;-79
2021/07/10 09:03:59;;;;;;;4.65;2.60;;;16.90;82.80;;;;;;5009313;28;20062;-79
2021/07/10 09:06:25;;;;;;;5.53;3.03;;;17.00;82.50;;;;;;5007765;28;20474;-77
2021/07/10 09:08:56;;;;;;;4.13;2.50;;;16.90;82.80;;;;;;5011772;28;20029;-81
2021/07/10 09:11:23;;;;;;;4.80;3.25;;;16.80;83.00;;;;;;5011406;28;20018;-80
2021/07/10 09:13:53;;;;;;;3.40;2.40;;;16.80;82.80;;;;;;5015251;28;20046;-82
2021/07/10 09:16:30;;;;;;;7.00;3.45;;;16.70;83.40;;;;;;5011451;28;20052;-81
2021/07/10 09:19:02;;;;;;;4.93;3.10;;;16.70;83.20;;;;;;5009571;28;20061;-79
2021/07/10 09:21:43;;;;;;;6.23;3.60;;;16.80;83.70;;;;;;5001643;28;20550;-78
2021/07/10 09:24:22;;;;;;;15.45;7.82;;;16.80;84.00;;;;;;5005183;28;20273;-78
2021/07/10 09:26:50;;;;;;;2.65;1.98;;;16.80;82.90;;;;;;5008363;28;20030;-77
2021/07/10 09:29:19;;;;;;;4.65;2.83;;;16.80;83.30;;;;;;5011797;28;20042;-78
2021/07/10 09:31:46;;;;;;;5.88;3.55;;;16.90;84.40;;;;;;5013431;28;20030;-82
2021/07/10 09:34:17;;;;;;;4.10;2.67;;;17.00;84.30;;;;;;4999336;28;20058;-83
2021/07/10 09:36:52;;;;;;;3.80;2.13;;;17.10;83.60;;;;;;5012182;28;20466;-88
2021/07/10 09:39:19;;;;;;;4.05;1.88;;;17.20;83.00;;;;;;5002206;28;20030;-86
2021/07/10 09:41:45;;;;;;;3.50;2.03;;;17.30;83.30;;;;;;5009128;28;20028;-86
2021/07/10 09:44:14;;;;;;;3.17;2.17;;;17.30;82.60;;;;;;5004973;28;20467;-87
2021/07/10 09:46:40;;;;;;;4.95;2.25;;;17.30;82.10;;;;;;5007004;28;20033;-86
2021/07/10 09:49:25;;;;;;;3.65;2.40;;;17.20;83.10;;;;;;5004282;28;20030;-86
2021/07/10 09:52:20;;;;;;;2.97;2.10;;;17.30;83.40;;;;;;5009143;28;20026;-85
2021/07/10 09:54:49;;;;;;;2.97;1.88;;;17.30;82.60;;;;;;5000973;28;20406;-83
2021/07/10 09:57:25;;;;;;;4.78;2.42;;;17.30;83.10;;;;;;5008828;28;20509;-89
2021/07/10 09:59:53;;;;;;;8.07;5.00;;;17.30;82.70;;;;;;5010645;28;20053;-78
2021/07/10 10:02:25;;;;;;;5.85;3.60;;;17.40;83.30;;;;;;5003518;28;20025;-77
2021/07/10 10:04:58;;;;;;;4.63;2.15;;;17.50;83.80;;;;;;5004561;28;20109;-80
2021/07/10 10:07:24;;;;;;;4.65;2.92;;;17.50;83.70;;;;;;4998740;28;20052;-78
2021/07/10 10:09:58;;;;;;;3.78;2.60;;;17.60;83.20;;;;;;5008870;28;20500;-79
2021/07/10 10:12:24;;;;;;;4.95;2.50;;;17.60;82.60;;;;;;4998413;28;20022;-77
2021/07/10 10:14:52;;;;;;;4.63;2.42;;;17.60;82.50;;;;;;5002490;28;20034;-87
2021/07/10 10:17:21;;;;;;;2.88;1.98;;;17.50;82.70;;;;;;5002088;28;20023;-85
2021/07/10 10:19:48;;;;;;;3.55;2.50;;;17.40;83.10;;;;;;5012091;28;20072;-87
2021/07/10 10:22:15;;;;;;;3.22;1.90;;;17.40;83.10;;;;;;5010553;28;20014;-78
2021/07/10 10:24:45;;;;;;;2.65;1.88;;;17.50;83.10;;;;;;5012608;28;20030;-85
2021/07/10 10:27:12;;;;;;;2.90;2.15;;;17.50;83.10;;;;;;5006458;28;20022;-79
2021/07/10 10:29:38;;;;;;;11.95;7.68;;;17.40;83.10;;;;;;5012003;28;20093;-79
2021/07/10 10:32:06;;;;;;;8.60;4.43;;;17.40;82.60;;;;;;5013024;28;20018;-79
2021/07/10 10:34:33;;;;;;;3.17;2.00;;;17.40;84.30;;;;;;5012082;28;20565;-80
2021/07/10 10:36:59;;;;;;;2.90;2.10;;;17.30;83.70;;;;;;5001418;28;20102;-79
2021/07/10 10:39:28;;;;;;;2.95;2.08;;;17.30;84.40;;;;;;5010648;28;20041;-79
2021/07/10 10:42:00;;;;;;;3.08;1.70;;;17.30;84.00;;;;;;4996297;28;20045;-77
2021/07/10 10:44:33;;;;;;;2.85;1.65;;;17.40;84.10;;;;;;5008408;28;20022;-79
2021/07/10 10:46:59;;;;;;;2.70;1.70;;;17.60;84.60;;;;;;5010718;28;20025;-80
2021/07/10 10:49:33;;;;;;;1.60;1.10;;;17.90;84.80;;;;;;5010525;28;20560;-76
2021/07/10 10:52:27;;;;;;;1.67;1.30;;;18.20;83.90;;;;;;4999238;28;20018;-78
2021/07/10 10:55:01;;;;;;;1.90;1.40;;;18.50;83.20;;;;;;5001209;28;20038;-77
2021/07/10 10:57:31;;;;;;;2.22;1.45;;;18.60;81.70;;;;;;5013624;28;20034;-77
2021/07/10 10:59:57;;;;;;;1.95;1.30;;;18.50;80.70;;;;;;5006943;28;20413;-79
2021/07/10 11:02:23;;;;;;;1.73;1.20;;;18.40;81.10;;;;;;5003569;28;20065;-77
2021/07/10 11:04:55;;;;;;;1.50;1.10;;;18.30;81.00;;;;;;4999767;28;20132;-79
2021/07/10 11:07:41;;;;;;;1.25;0.75;;;18.20;81.00;;;;;;5004785;28;20501;-78
2021/07/10 11:10:17;;;;;;;1.08;0.80;;;18.10;81.60;;;;;;5009801;28;20026;-79
2021/07/10 11:12:48;;;;;;;1.05;0.80;;;18.10;82.10;;;;;;5005556;28;20116;-79
2021/07/10 11:15:30;;;;;;;1.33;0.90;;;18.10;81.70;;;;;;5006849;28;20080;-78
2021/07/10 11:17:58;;;;;;;1.23;0.98;;;18.10;82.10;;;;;;5009290;28;20759;-79
2021/07/10 11:20:44;;;;;;;2.17;0.93;;;18.00;82.60;;;;;;5004668;28;20461;-79
2021/07/10 11:23:34;;;;;;;1.00;0.60;;;17.90;81.90;;;;;;5005035;28;20033;-78
2021/07/10 11:26:06;;;;;;;0.63;0.50;;;17.80;81.70;;;;;;5005166;28;20084;-79
2021/07/10 11:28:50;;;;;;;0.60;0.40;;;17.80;83.40;;;;;;4997287;28;20053;-80
2021/07/10 11:31:20;;;;;;;0.73;0.40;;;18.00;84.10;;;;;;4999784;28;20030;-79
2021/07/10 11:34:01;;;;;;;1.63;0.40;;;18.30;83.60;;;;;;5005558;28;20494;-79
2021/07/10 11:36:42;;;;;;;0.90;0.60;;;18.50;83.10;;;;;;4996111;28;20105;-77
2021/07/10 11:39:23;;;;;;;0.90;0.70;;;18.70;82.60;;;;;;5001361;28;20430;-79
2021/07/10 11:42:22;;;;;;;0.95;0.68;;;18.90;83.40;;;;;;4996022;28;20037;-79
2021/07/10 11:44:51;;;;;;;1.20;0.73;;;19.20;83.70;;;;;;4994060;28;20026;-80
2021/07/10 11:47:30;;;;;;;1.73;1.30;;;19.60;83.90;;;;;;5004637;28;20443;-79
2021/07/10 11:49:58;;;;;;;4.32;2.35;;;20.00;82.50;;;;;;4997698;28;20030;-76
2021/07/10 11:52:23;;;;;;;1.70;1.20;;;20.10;81.10;;;;;;5001427;28;20029;-75
2021/07/10 11:54:57;;;;;;;1.48;1.10;;;20.30;80.90;;;;;;5001095;28;20114;-76
2021/07/10 11:57:26;;;;;;;1.83;1.38;;;20.30;80.60;;;;;;4997976;28;20048;-77
2021/07/10 11:59:53;;;;;;;1.75;1.17;;;20.50;79.90;;;;;;4997615;28;20107;-76
2021/07/10 12:02:25;;;;;;;2.42;1.25;;;20.60;80.10;;;;;;5005167;28;20010;-77
2021/07/10 12:05:03;;;;;;;3.03;2.13;;;20.80;80.80;;;;;;5009542;28;20057;-77
2021/07/10 12:07:29;;;;;;;1.42;1.10;;;20.80;77.60;;;;;;5009448;28;20021;-76
2021/07/10 12:09:55;;;;;;;2.00;1.17;;;20.80;77.50;;;;;;5010516;28;20049;-77
2021/07/10 12:12:21;;;;;;;1.70;1.17;;;20.70;76.90;;;;;;5010369;28;20029;-77
2021/07/10 12:14:51;;;;;;;1.38;1.17;;;20.80;78.90;;;;;;5008940;28;20406;-77
2021/07/10 12:17:16;;;;;;;2.38;1.02;;;21.20;79.60;;;;;;5009562;28;20049;-78
2021/07/10 12:19:42;;;;;;;1.55;1.10;;;21.60;77.30;;;;;;5007882;28;20462;-77
2021/07/10 12:22:08;;;;;;;1.30;0.90;;;21.70;76.50;;;;;;5010077;28;20817;-77
2021/07/10 12:24:34;;;;;;;2.20;1.58;;;21.80;75.20;;;;;;5011991;28;20479;-77
2021/07/10 12:27:29;;;;;;;2.42;1.27;;;21.80;74.40;;;;;;5009948;28;20017;-78
2021/07/10 12:29:56;;;;;;;2.83;1.20;;;21.80;76.10;;;;;;5005520;28;20536;-77
2021/07/10 12:32:22;;;;;;;2.97;1.83;;;21.90;74.00;;;;;;5008224;28;20022;-77
2021/07/10 12:34:57;;;;;;;2.05;1.63;;;22.00;76.30;;;;;;5009947;28;20040;-76
2021/07/10 12:37:30;;;;;;;2.10;1.40;;;22.10;73.50;;;;;;4998987;28;20026;-76
2021/07/10 12:40:08;;;;;;;;;;;21.90;72.10;;;;;;5009259;28;20053;-76
2021/07/10 12:42:34;;;;;;;2.15;1.52;;;21.80;73.60;;;;;;4995739;28;19905;-76
2021/07/10 12:45:00;;;;;;;5.30;3.30;;;21.70;73.30;;;;;;5008234;28;20030;-76
2021/07/10 12:47:27;;;;;;;3.28;2.03;;;21.80;73.40;;;;;;5008205;28;20041;-76
2021/07/10 12:49:59;;;;;;;4.18;2.00;;;21.80;73.00;;;;;;5008131;28;20022;-77